Time;durP1;ratioP1;P1;durP2;ratioP2;P2;SDS_P1;SDS_P2;PMS_P1;PMS_P2;Temp;Humidity;BMP_temperature;BMP_pressure;BME280_temperature;BME280_humidity;BME280_pressure;Samples;Min_cycle;Max_cycle;Signal;HPM_P1;HPM_P2
2022/10/04 00:02:29;;;;;;;;;10.40;9.00;;;;;15.57;71.41;98833.66;6294717;27;96487;-68
2022/10/04 00:05:35;;;;;;;;;10.00;9.60;;;;;15.43;71.70;98813.34;6278130;27;97190;-68
2022/10/04 00:08:44;;;;;;;;;10.00;9.00;;;;;15.49;71.91;98823.19;6210700;28;96369;-68
2022/10/04 00:11:48;;;;;;;;;9.75;9.00;;;;;15.49;71.69;98823.19;6278541;27;96665;-68
2022/10/04 00:14:53;;;;;;;;;13.00;11.00;;;;;15.42;71.89;98828.00;6210135;28;96594;-67
2022/10/04 00:18:04;;;;;;;;;9.60;9.00;;;;;15.47;71.93;98827.25;6209833;27;96235;-67
2022/10/04 00:21:09;;;;;;;;;10.00;8.60;;;;;15.44;71.50;98831.28;6279373;27;96553;-66
2022/10/04 00:24:21;;;;;;;;;9.00;8.40;;;;;15.29;71.34;98812.09;6229810;27;98349;-67
2022/10/04 00:27:27;;;;;;;;;10.00;8.00;;;;;15.47;71.53;98824.53;6209229;28;96779;-66
2022/10/04 00:30:37;;;;;;;;;9.40;9.00;;;;;15.39;72.14;98833.13;6241572;27;98329;-66
2022/10/04 00:33:42;;;;;;;;;10.60;10.00;;;;;15.40;72.26;98827.44;6208650;28;98653;-67
2022/10/04 00:36:51;;;;;;;;;9.00;8.00;;;;;15.42;72.61;98819.84;6209742;27;98687;-67
2022/10/04 00:40:12;;;;;;;;;9.60;8.60;;;;;15.34;72.86;98814.88;6209517;28;96376;-67
2022/10/04 00:43:21;;;;;;;;;10.25;9.25;;;;;15.34;73.25;98819.50;6208862;28;97062;-66
2022/10/04 00:46:29;;;;;;;;;12.00;10.00;;;;;15.37;73.18;98813.53;6270698;27;98433;-66
2022/10/04 00:49:39;;;;;;;;;10.00;10.00;;;;;15.32;73.08;98783.59;6210032;28;96868;-66
2022/10/04 00:52:47;;;;;;;;;11.00;11.00;;;;;15.42;72.96;98805.44;6278416;27;96334;-66
2022/10/04 00:55:54;;;;;;;;;13.00;11.50;;;;;15.42;72.79;98798.13;6210055;28;96218;-67
2022/10/04 00:59:17;;;;;;;;;12.25;10.00;;;;;15.35;72.92;98810.25;6225846;28;96513;-66
2022/10/04 01:02:23;;;;;;;;;11.00;9.00;;;;;15.40;72.85;98818.44;6208647;28;96438;-66
2022/10/04 01:05:32;;;;;;;;;9.40;9.40;;;;;15.34;73.32;98817.59;6223054;27;96939;-66
2022/10/04 01:08:40;;;;;;;;;11.50;10.00;;;;;15.35;73.39;98816.50;6255514;27;98455;-67
2022/10/04 01:11:56;;;;;;;;;10.00;10.00;;;;;15.33;73.35;98818.66;6209130;28;97084;-67
2022/10/04 01:15:07;;;;;;;;;10.00;9.00;;;;;15.40;73.35;98821.16;6208884;28;96149;-67
2022/10/04 01:18:14;;;;;;;;;11.00;10.00;;;;;15.42;72.95;98819.84;6209625;28;96535;-66
2022/10/04 01:21:28;;;;;;;;;10.00;9.20;;;;;15.49;72.93;98817.75;6258245;27;98766;-67
2022/10/04 01:24:36;;;;;;;;;11.00;10.00;;;;;15.53;72.41;98809.97;6210116;28;96367;-67
2022/10/04 01:27:43;;;;;;;;;10.80;10.00;;;;;15.54;72.29;98812.41;6211471;27;96313;-67
2022/10/04 01:30:48;;;;;;;;;9.50;8.75;;;;;15.53;71.98;98805.34;6208715;28;96314;-67
2022/10/04 01:33:51;;;;;;;;;8.50;7.50;;;;;15.37;72.03;98791.81;6209048;28;96463;-67
2022/10/04 01:36:58;;;;;;;;;11.40;9.60;;;;;15.44;72.15;98812.25;6209908;28;96655;-67
2022/10/04 01:40:03;;;;;;;;;7.20;6.80;;;;;15.43;72.31;98815.25;6209508;28;96245;-67
2022/10/04 01:43:10;;;;;;;;;7.80;7.00;;;;;15.45;72.39;98813.06;6209607;28;96309;-67
2022/10/04 01:46:20;;;;;;;;;8.00;8.00;;;;;15.41;72.00;98806.50;6241228;27;96820;-67
2022/10/04 01:49:29;;;;;;;;;8.00;8.00;;;;;15.41;72.17;98801.91;6248969;27;96711;-67
2022/10/04 01:52:37;;;;;;;;;10.00;9.00;;;;;15.34;72.19;98808.63;6225367;27;98322;-67
2022/10/04 01:55:48;;;;;;;;;11.40;9.00;;;;;15.25;72.76;98812.88;6261711;27;98543;-66
2022/10/04 01:58:57;;;;;;;;;9.25;9.00;;;;;15.30;72.74;98819.16;6208820;28;97545;-66
2022/10/04 02:02:06;;;;;;;;;9.40;9.00;;;;;15.18;73.44;98803.00;6208431;28;96410;-66
2022/10/04 02:05:13;;;;;;;;;9.00;9.00;;;;;15.11;73.78;98804.25;6273692;27;96601;-66
2022/10/04 02:08:22;;;;;;;;;8.00;7.00;;;;;15.10;74.23;98808.88;6209478;28;96303;-66
2022/10/04 02:11:30;;;;;;;;;10.60;10.00;;;;;15.10;74.58;98802.66;6224668;28;96920;-66
2022/10/04 02:14:35;;;;;;;;;11.00;11.00;;;;;15.20;74.41;98810.09;6249506;27;98577;-66
2022/10/04 02:17:41;;;;;;;;;10.00;9.00;;;;;15.16;74.49;98799.72;6208038;28;96625;-68
2022/10/04 02:20:48;;;;;;;;;9.00;9.00;;;;;15.09;74.22;98801.00;6246985;27;97060;-66
2022/10/04 02:23:53;;;;;;;;;11.40;10.00;;;;;15.14;74.63;98801.06;6255272;27;98304;-66
2022/10/04 02:27:00;;;;;;;;;11.00;11.00;;;;;15.19;74.53;98806.56;6204406;28;96369;-66
2022/10/04 02:30:06;;;;;;;;;10.00;9.00;;;;;15.20;74.14;98812.81;6232428;27;96613;-66
2022/10/04 02:33:10;;;;;;;;;10.00;9.25;;;;;15.13;73.90;98796.69;6236425;27;97320;-66
2022/10/04 02:36:14;;;;;;;;;9.00;9.00;;;;;15.11;73.62;98790.69;6206301;28;96345;-66
2022/10/04 02:39:24;;;;;;;;;7.40;7.00;;;;;15.07;72.99;98800.41;6206054;27;96065;-66
2022/10/04 02:42:39;;;;;;;;;8.00;8.00;;;;;15.10;72.71;98808.88;6282668;27;98555;-66
2022/10/04 02:45:48;;;;;;;;;8.60;8.00;;;;;15.12;72.46;98812.16;6266303;27;96206;-66
2022/10/04 02:48:57;;;;;;;;;9.00;8.40;;;;;15.10;72.37;98806.16;6205910;27;98242;-66
2022/10/04 02:52:05;;;;;;;;;7.00;6.40;;;;;15.15;71.90;98805.38;6205693;28;96656;-66
2022/10/04 02:55:19;;;;;;;;;7.00;6.60;;;;;15.10;71.68;98808.06;6207508;28;96208;-66
2022/10/04 02:58:26;;;;;;;;;7.00;7.00;;;;;15.07;71.52;98800.41;6208214;28;96006;-66
2022/10/04 03:01:41;;;;;;;;;7.00;6.00;;;;;15.05;71.14;98797.16;6222125;27;98411;-66
2022/10/04 03:04:44;;;;;;;;;7.00;7.00;;;;;14.94;71.13;98809.78;6213353;27;98443;-66
2022/10/04 03:07:50;;;;;;;;;10.00;9.00;;;;;14.93;71.50;98816.25;6208134;28;96759;-66
2022/10/04 03:10:54;;;;;;;;;5.20;5.20;;;;;14.73;71.97;98792.38;6208536;28;96999;-66
2022/10/04 03:14:02;;;;;;;;;7.40;7.00;;;;;14.92;72.17;98811.91;6208047;28;96796;-66
2022/10/04 03:17:08;;;;;;;;;7.00;7.00;;;;;14.94;72.19;98812.47;6241619;27;96572;-66
2022/10/04 03:20:19;;;;;;;;;6.00;6.00;;;;;14.87;72.57;98816.44;6268940;27;96703;-66
2022/10/04 03:23:23;;;;;;;;;7.00;7.00;;;;;14.86;73.00;98809.34;6206831;28;96813;-66
2022/10/04 03:26:30;;;;;;;;;6.00;6.00;;;;;14.86;73.11;98809.34;6255615;27;96308;-66
2022/10/04 03:29:39;;;;;;;;;6.40;6.40;;;;;14.86;72.97;98807.47;6207489;28;96336;-67
2022/10/04 03:32:43;;;;;;;;;8.00;7.00;;;;;14.87;72.87;98806.41;6206668;28;96222;-66
2022/10/04 03:35:52;;;;;;;;;10.00;8.40;;;;;14.76;72.90;98810.03;6274819;27;98152;-66
2022/10/04 03:38:57;;;;;;;;;7.00;7.00;;;;;14.65;73.62;98800.13;6208847;27;96884;-67
2022/10/04 03:42:05;;;;;;;;;8.00;7.40;;;;;14.57;74.13;98797.84;6326176;27;97094;-65
2022/10/04 03:45:17;;;;;;;;;8.60;7.60;;;;;14.53;74.51;98810.25;6229918;27;96435;-67
2022/10/04 03:48:29;;;;;;;;;7.00;7.00;;;;;14.52;74.70;98814.03;6279061;27;96975;-66
2022/10/04 03:51:34;;;;;;;;;6.40;5.80;;;;;14.52;74.83;98816.75;6289335;27;98412;-66
2022/10/04 03:54:38;;;;;;;;;6.00;6.00;;;;;14.43;75.04;98807.41;6211399;28;96299;-66
2022/10/04 03:57:42;;;;;;;;;7.00;6.50;;;;;14.40;75.39;98824.19;6236581;27;96624;-66
2022/10/04 04:01:00;;;;;;;;;7.00;6.00;;;;;14.39;75.64;98815.22;6260564;27;98843;-66
2022/10/04 04:04:17;;;;;;;;;5.80;5.00;;;;;14.38;75.52;98818.16;6273206;27;97110;-67
2022/10/04 04:07:26;;;;;;;;;5.00;5.00;;;;;14.38;75.78;98827.13;6261050;27;98049;-66
2022/10/04 04:10:33;;;;;;;;;7.00;6.80;;;;;14.31;76.08;98824.56;6198794;28;96476;-66
2022/10/04 04:13:46;;;;;;;;;6.00;6.00;;;;;14.35;75.78;98818.63;6235548;27;97579;-66
2022/10/04 04:16:52;;;;;;;;;6.60;6.00;;;;;14.35;75.60;98824.88;6210650;28;96564;-65
2022/10/04 04:19:59;;;;;;;;;5.20;5.20;;;;;14.45;75.21;98830.50;6296124;27;97002;-68
2022/10/04 04:23:22;;;;;;;;;8.00;7.00;;;;;14.44;75.23;98850.56;6210954;28;96256;-65
2022/10/04 04:26:34;;;;;;;;;6.00;5.20;;;;;14.47;75.14;98846.50;6278945;27;96699;-65
2022/10/04 04:29:47;;;;;;;;;7.00;6.00;;;;;14.48;75.23;98840.84;6210313;28;96964;-66
2022/10/04 04:32:56;;;;;;;;;6.00;6.00;;;;;14.62;75.15;98838.59;6278544;27;96903;-66
2022/10/04 04:36:07;;;;;;;;;7.00;5.20;;;;;14.70;74.55;98847.16;6276067;27;97113;-66
2022/10/04 04:39:36;;;;;;;;;8.00;7.00;;;;;14.80;73.99;98849.22;6295872;27;96949;-66
2022/10/04 04:42:39;;;;;;;;;5.00;5.00;;;;;14.69;73.54;98840.09;6264043;27;97555;-66
2022/10/04 04:45:43;;;;;;;;;5.00;5.00;;;;;14.85;73.17;98856.59;6209969;28;96616;-66
2022/10/04 04:48:52;;;;;;;;;7.00;6.00;;;;;14.81;72.97;98853.53;6206152;28;96777;-66
2022/10/04 04:51:56;;;;;;;;;6.00;5.00;;;;;14.94;72.74;98855.09;6231891;27;96248;-66
2022/10/04 04:55:00;;;;;;;;;6.00;6.00;;;;;15.01;72.59;98858.44;6210593;28;96280;-68
2022/10/04 04:58:07;;;;;;;;;6.00;5.80;;;;;15.03;71.86;98861.72;6272511;27;96522;-65
2022/10/04 05:01:18;;;;;;;;;9.00;7.00;;;;;14.84;72.20;98854.94;6275940;27;96889;-67
2022/10/04 05:04:23;;;;;;;;;6.00;6.00;;;;;14.98;71.65;98872.50;6230820;27;96383;-70
2022/10/04 05:07:28;;;;;;;;;6.00;4.50;;;;;14.91;72.23;98850.97;6211737;27;96337;-69
2022/10/04 05:10:33;;;;;;;;;5.00;5.00;;;;;15.02;72.50;98877.19;6256366;27;96678;-68
2022/10/04 05:13:42;;;;;;;;;8.60;8.00;;;;;14.95;72.80;98859.47;6260400;27;98376;-68
2022/10/04 05:16:49;;;;;;;;;8.80;7.00;;;;;15.02;72.75;98877.19;6192318;27;96249;-69
2022/10/04 05:19:58;;;;;;;;;8.80;8.20;;;;;14.96;72.83;98883.63;6293050;27;97696;-68
2022/10/04 05:23:02;;;;;;;;;8.00;8.00;;;;;15.01;73.29;98878.25;6276329;27;96667;-69
2022/10/04 05:26:11;;;;;;;;;8.00;7.40;;;;;15.06;73.20;98886.47;6225129;27;96872;-70
2022/10/04 05:29:19;;;;;;;;;8.00;7.00;;;;;15.06;73.12;98886.47;6239654;27;96978;-68
2022/10/04 05:32:33;;;;;;;;;7.00;6.00;;;;;15.02;72.98;98895.38;6230305;27;96660;-68
2022/10/04 05:35:56;;;;;;;;;8.00;7.00;;;;;15.08;73.27;98902.53;6273897;27;98653;-68
2022/10/04 05:39:05;;;;;;;;;7.00;6.40;;;;;15.09;73.31;98894.13;6277519;27;96630;-67
2022/10/04 05:42:18;;;;;;;;;8.40;7.40;;;;;15.12;72.87;98904.50;6212361;27;96887;-68
2022/10/04 05:45:26;;;;;;;;;7.60;7.00;;;;;15.23;72.43;98913.59;6206528;28;96696;-66
2022/10/04 05:48:30;;;;;;;;;7.00;6.00;;;;;15.33;71.78;98918.34;6245595;27;97040;-66
2022/10/04 05:51:49;;;;;;;;;7.25;7.25;;;;;15.42;71.60;98914.13;6242813;27;96297;-65
2022/10/04 05:55:17;;;;;;;;;6.00;5.67;;;;;15.43;71.42;98916.59;6193784;28;96865;-65
2022/10/04 05:58:45;;;;;;;;;6.00;4.50;;;;;15.52;70.86;98925.16;6200960;27;96442;-65
2022/10/04 06:01:56;;;;;;;;;5.00;5.00;;;;;15.53;70.46;98930.34;6197028;28;96557;-65
2022/10/04 06:05:10;;;;;;;;;7.00;7.00;;;;;15.70;69.94;98937.59;6279447;27;96809;-65
2022/10/04 06:08:26;;;;;;;;;8.00;7.00;;;;;15.78;69.52;98948.03;6291759;27;98809;-66
2022/10/04 06:11:47;;;;;;;;;7.00;7.00;;;;;15.81;69.11;98947.50;6206321;28;96345;-67
2022/10/04 06:15:19;;;;;;;;;7.00;5.75;;;;;15.82;69.10;98949.97;6205677;27;97402;-66
2022/10/04 06:18:45;;;;;;;;;7.00;6.00;;;;;15.71;69.07;98956.38;6273244;27;96564;-67
2022/10/04 06:22:10;;;;;;;;;7.40;7.00;;;;;15.77;68.57;98952.63;6204564;28;96363;-65
2022/10/04 06:25:27;;;;;;;;;6.33;6.33;;;;;15.91;68.28;98958.50;6271779;27;96842;-68
2022/10/04 06:28:36;;;;;;;;;6.00;6.00;;;;;15.97;68.13;98955.59;6273607;27;98538;-67
2022/10/04 06:32:11;;;;;;;;;8.40;7.60;;;;;16.09;67.67;98966.31;6206518;28;97508;-65
2022/10/04 06:35:38;;;;;;;;;6.00;6.00;;;;;16.06;66.63;98961.41;6289236;27;96512;-66
2022/10/04 06:39:04;;;;;;;;;7.00;7.00;;;;;16.18;65.68;98972.94;6217298;27;96821;-66
2022/10/04 06:42:32;;;;;;;;;7.00;6.00;;;;;16.27;67.85;98973.31;6297464;27;97177;-66
2022/10/04 06:45:51;;;;;;;;;6.25;5.00;;;;;16.39;67.11;98973.97;6273415;27;96618;-65
2022/10/04 06:49:14;;;;;;;;;7.40;6.00;;;;;16.54;66.16;98976.84;6205275;28;96994;-65
2022/10/04 06:52:31;;;;;;;;;4.80;4.80;;;;;16.70;65.02;98973.22;6261087;27;96980;-67
2022/10/04 06:55:54;;;;;;;;;8.00;7.00;;;;;16.89;63.76;98973.66;6206386;28;96435;-67
2022/10/04 06:59:23;;;;;;;;;6.00;6.00;;;;;17.01;62.56;98971.53;6270553;27;97162;-70
2022/10/04 07:02:33;;;;;;;;;7.00;7.00;;;;;16.94;62.02;98976.41;6194997;28;96488;-67
2022/10/04 07:05:45;;;;;;;;;6.20;6.20;;;;;16.99;61.46;98989.25;6205039;28;96497;-68
2022/10/04 07:08:54;;;;;;;;;7.75;7.00;;;;;17.09;61.02;98997.50;6291765;27;96349;-70
2022/10/04 07:12:04;;;;;;;;;6.00;6.00;;;;;17.09;60.95;99003.78;6257794;27;96808;-70
2022/10/04 07:15:19;;;;;;;;;6.00;5.00;;;;;17.11;59.47;99015.22;6279197;27;96705;-69
2022/10/04 07:18:28;;;;;;;;;8.00;7.25;;;;;17.18;59.51;99013.09;6279243;27;96345;-69
2022/10/04 07:21:40;;;;;;;;;6.00;5.50;;;;;17.12;59.25;99019.59;6242441;27;96584;-68
2022/10/04 07:25:03;;;;;;;;;6.60;6.60;;;;;17.15;59.35;99021.78;6279227;27;96253;-70
2022/10/04 07:31:38;;;;;;;;;5.75;5.75;;;;;17.10;58.49;99026.38;6210344;28;96482;-70
2022/10/04 07:34:50;;;;;;;;;6.00;6.00;;;;;17.04;58.43;99030.97;6210932;28;96333;-70
2022/10/04 07:38:00;;;;;;;;;6.00;5.00;;;;;17.09;58.55;99038.34;6279728;27;98480;-69
2022/10/04 07:41:10;;;;;;;;;6.00;5.60;;;;;17.09;58.32;99032.91;6211552;28;96480;-70
2022/10/04 07:44:22;;;;;;;;;6.60;6.00;;;;;17.18;58.13;99034.06;6203677;28;96616;-67
2022/10/04 07:47:28;;;;;;;;;6.00;5.00;;;;;17.40;57.82;99037.47;6211033;27;96656;-68
2022/10/04 07:50:41;;;;;;;;;6.00;5.00;;;;;17.46;58.05;99044.63;6254949;27;96357;-68
2022/10/04 07:53:53;;;;;;;;;4.50;4.50;;;;;17.59;57.51;99046.13;6210157;28;96368;-67
2022/10/04 07:57:01;;;;;;;;;5.75;4.75;;;;;17.60;57.15;99051.28;6210500;28;96294;-66
2022/10/04 08:00:12;;;;;;;;;7.00;6.00;;;;;17.70;57.20;99031.44;6210666;28;96331;-69
2022/10/04 08:03:35;;;;;;;;;7.00;6.60;;;;;17.63;56.27;99050.78;6210282;28;96837;-67
2022/10/04 08:06:51;;;;;;;;;5.60;5.60;;;;;17.59;57.08;99060.53;6277261;27;97014;-67
2022/10/04 08:10:02;;;;;;;;;6.40;6.40;;;;;17.81;58.31;99063.13;6200236;28;96706;-67
2022/10/04 08:13:20;;;;;;;;;5.80;5.00;;;;;17.83;57.38;99065.63;6207272;28;97902;-66
2022/10/04 08:16:35;;;;;;;;;6.00;6.00;;;;;17.82;56.09;99086.59;6207974;28;97298;-67
2022/10/04 08:19:53;;;;;;;;;6.00;5.67;;;;;17.96;56.42;99081.50;6283851;27;96555;-68
2022/10/04 08:23:07;;;;;;;;;7.40;7.40;;;;;17.95;56.28;99080.66;6206384;28;96381;-67
2022/10/04 08:26:33;;;;;;;;;7.00;6.60;;;;;17.90;55.21;99075.19;6287724;27;97623;-68
2022/10/04 08:29:58;;;;;;;;;5.00;5.00;;;;;18.07;55.31;99081.28;6207872;28;97056;-67
2022/10/04 08:33:12;;;;;;;;;5.00;5.00;;;;;18.09;54.17;99089.19;6210081;28;96347;-69
2022/10/04 08:36:31;;;;;;;;;6.20;5.60;;;;;18.05;54.21;99085.34;6278906;27;96462;-68
2022/10/04 08:39:58;;;;;;;;;7.00;7.00;;;;;17.92;54.31;99097.56;6278847;27;96838;-68
2022/10/04 08:43:36;;;;;;;;;5.50;5.25;;;;;17.77;54.14;99094.75;6272283;27;96488;-68
2022/10/04 08:47:21;;;;;;;;;5.40;5.00;;;;;17.69;55.46;99096.06;6221791;27;96523;-68
2022/10/04 08:50:46;;;;;;;;;6.00;6.00;;;;;17.63;55.60;99093.56;6202082;28;96212;-70
2022/10/04 08:54:20;;;;;;;;;6.00;5.60;;;;;17.69;55.86;99090.59;6235111;27;98189;-68
2022/10/04 08:58:01;;;;;;;;;8.00;7.00;;;;;17.68;55.50;99093.59;6277732;27;96823;-68
2022/10/04 09:01:31;;;;;;;;;4.20;4.00;;;;;17.75;55.51;99099.63;6209604;28;97993;-70
2022/10/04 09:05:07;;;;;;;;;5.00;4.80;;;;;17.85;55.78;99101.59;6270172;27;96831;-69
2022/10/04 09:09:13;;;;;;;;;6.40;6.00;;;;;17.90;54.89;99107.09;6248921;27;96282;-70
2022/10/04 09:12:44;;;;;;;;;8.75;8.00;;;;;18.06;55.41;99108.81;6277658;27;96809;-69
2022/10/04 09:15:55;;;;;;;;;6.00;6.00;;;;;18.07;54.97;99113.22;6285981;27;96402;-71
2022/10/04 09:19:20;;;;;;;;;6.00;5.00;;;;;18.11;53.73;99108.84;6199690;28;96443;-69
2022/10/04 09:22:46;;;;;;;;;6.00;5.25;;;;;18.25;54.03;99120.09;6214590;27;96367;-69
2022/10/04 09:26:06;;;;;;;;;6.80;5.80;;;;;18.16;53.61;99122.53;6278865;27;96275;-69
2022/10/04 09:29:34;;;;;;;;;6.00;6.00;;;;;18.22;53.36;99128.84;6199832;27;97484;-71
2022/10/04 09:32:59;;;;;;;;;7.00;6.00;;;;;18.30;53.44;99129.16;6207039;27;96928;-68
2022/10/04 09:36:22;;;;;;;;;6.50;5.50;;;;;18.31;53.02;99143.63;6281985;27;96082;-68
2022/10/04 09:39:59;;;;;;;;;6.00;5.00;;;;;18.28;52.87;99141.41;6209062;27;96383;-66
2022/10/04 09:46:53;;;;;;;;;5.00;5.00;;;;;18.18;53.41;99143.00;6311149;27;95933;-66
2022/10/04 09:50:34;;;;;;;;;6.40;5.40;;;;;18.19;53.22;99136.44;6281950;27;97516;-68
2022/10/04 09:53:51;;;;;;;;;7.00;6.00;;;;;18.32;53.53;99151.53;6234026;27;96970;-70
2022/10/04 09:57:15;;;;;;;;;6.00;6.00;;;;;18.41;53.10;99154.59;6229376;27;96403;-68
2022/10/04 10:00:22;;;;;;;;;5.00;5.00;;;;;18.35;52.88;99151.00;6234222;27;96665;-66
2022/10/04 10:04:04;;;;;;;;;6.67;6.00;;;;;18.48;53.11;99149.69;6234999;27;98585;-68
2022/10/04 10:07:36;;;;;;;;;7.00;5.00;;;;;18.56;53.06;99141.84;6216510;27;98405;-65
2022/10/04 10:14:46;;;;;;;;;5.00;5.00;;;;;19.07;50.95;99160.28;6237357;27;96373;-68
2022/10/04 10:17:55;;;;;;;;;4.50;4.00;;;;;19.23;51.03;99161.97;6236631;27;96370;-68
2022/10/04 10:21:24;;;;;;;;;3.20;3.20;;;;;19.43;50.17;99164.72;6233223;27;97971;-68
2022/10/04 10:25:00;;;;;;;;;5.00;4.00;;;;;19.52;48.75;99163.13;6256768;27;96226;-69
2022/10/04 10:28:24;;;;;;;;;5.00;5.00;;;;;19.86;48.85;99169.66;6247590;27;98543;-68
2022/10/04 10:31:53;;;;;;;;;4.00;4.00;;;;;20.07;47.52;99173.19;6245842;27;96236;-68
2022/10/04 10:35:16;;;;;;;;;5.60;5.00;;;;;20.77;46.50;99171.34;6251686;27;96396;-68
2022/10/04 10:38:39;;;;;;;;;5.60;5.60;;;;;21.93;43.05;99178.84;6251568;27;96463;-68
2022/10/04 10:41:55;;;;;;;;;6.00;5.40;;;;;22.33;41.41;99174.84;6218706;27;98415;-69
2022/10/04 10:45:23;;;;;;;;;4.00;4.00;;;;;22.14;42.17;99178.66;6214037;27;98470;-67
2022/10/04 10:48:40;;;;;;;;;3.25;3.00;;;;;21.84;41.95;99177.81;6257142;27;96310;-69
2022/10/04 10:52:24;;;;;;;;;6.00;5.00;;;;;21.35;42.19;99183.41;6254455;27;96678;-66
2022/10/04 10:55:53;;;;;;;;;3.80;3.20;;;;;21.17;42.41;99181.31;6219601;27;98485;-67
2022/10/04 10:59:46;;;;;;;;;4.00;3.50;;;;;20.94;42.90;99171.00;6231757;28;96401;-68
2022/10/04 11:03:16;;;;;;;;;4.75;4.00;;;;;21.11;42.91;99187.91;6147563;28;96413;-68
2022/10/04 11:07:05;;;;;;;;;4.60;3.00;;;;;21.62;41.88;99193.88;6240399;27;96154;-70
2022/10/04 11:10:47;;;;;;;;;4.00;4.00;;;;;22.40;38.70;99182.75;6237668;28;98626;-68
2022/10/04 11:14:42;;;;;;;;;4.20;4.20;;;;;23.38;37.32;99187.53;6207562;28;96869;-66
2022/10/04 11:18:18;;;;;;;;;2.50;2.50;;;;;25.12;35.48;99187.69;6126937;28;96696;-69
2022/10/04 11:22:06;;;;;;;;;5.67;5.67;;;;;25.32;33.74;99186.41;6233977;28;96726;-69
2022/10/04 11:25:47;;;;;;;;;4.00;4.00;;;;;25.93;33.12;99204.31;6217715;28;96641;-66
2022/10/04 11:28:57;;;;;;;;;3.60;3.60;;;;;27.12;31.68;99198.53;6212263;28;99211;-71
2022/10/04 11:32:31;;;;;;;;;4.00;4.00;;;;;27.28;29.31;99207.19;6237867;28;96851;-70
2022/10/04 11:35:53;;;;;;;;;4.60;4.60;;;;;27.32;28.79;99201.84;6195552;28;96482;-71
2022/10/04 11:39:24;;;;;;;;;3.50;3.50;;;;;27.07;29.40;99211.72;6224169;28;98398;-73
2022/10/04 11:42:50;;;;;;;;;4.00;4.00;;;;;27.01;29.63;99207.47;6235047;28;96288;-73
2022/10/04 11:46:16;;;;;;;;;5.00;4.00;;;;;26.28;30.21;99200.66;6229539;28;98627;-72
2022/10/04 11:49:42;;;;;;;;;4.00;3.40;;;;;25.63;31.73;99209.44;6217574;28;97637;-70
2022/10/04 11:53:24;;;;;;;;;5.00;5.00;;;;;25.06;32.67;99196.41;6204401;28;99414;-70
2022/10/04 11:56:41;;;;;;;;;3.25;3.25;;;;;24.79;33.00;99199.94;6217445;28;96869;-70
2022/10/04 11:59:57;;;;;;;;;5.00;5.00;;;;;25.94;32.10;99206.75;6211143;28;96653;-70
2022/10/04 12:03:31;;;;;;;;;3.60;3.00;;;;;26.50;30.98;99203.34;6211713;28;96607;-72
2022/10/04 12:06:57;;;;;;;;;6.00;6.00;;;;;26.35;29.50;99212.06;6205664;28;98497;-71
2022/10/04 12:10:19;;;;;;;;;2.00;2.00;;;;;26.26;30.68;99209.25;6192369;28;96855;-70
2022/10/04 12:13:51;;;;;;;;;2.25;2.00;;;;;25.72;31.49;99210.31;6192893;28;98333;-69
2022/10/04 12:17:27;;;;;;;;;3.00;3.00;;;;;25.25;32.14;99206.16;6218223;28;96716;-70
2022/10/04 12:21:05;;;;;;;;;4.00;4.00;;;;;25.19;32.51;99212.91;6217115;28;96453;-70
2022/10/04 12:24:47;;;;;;;;;4.00;4.00;;;;;24.90;33.00;99215.22;6206858;28;96652;-71
2022/10/04 12:28:21;;;;;;;;;4.00;3.40;;;;;24.44;33.87;99198.72;6228161;28;97808;-70
2022/10/04 12:31:31;;;;;;;;;5.00;5.00;;;;;24.05;34.18;99207.41;6223019;28;97005;-73
2022/10/04 12:34:47;;;;;;;;;4.80;4.00;;;;;23.52;35.19;99215.16;6198839;28;97029;-67
2022/10/04 12:38:22;;;;;;;;;3.00;2.00;;;;;22.75;36.24;99217.28;6238340;28;96366;-71
2022/10/04 12:41:39;;;;;;;;;4.00;4.00;;;;;22.17;37.25;99214.59;6226709;28;96338;-73
2022/10/04 12:44:58;;;;;;;;;3.00;2.00;;;;;22.06;37.50;99217.69;6233382;28;97402;-74
2022/10/04 12:48:23;;;;;;;;;3.00;3.00;;;;;21.88;38.08;99221.97;6238034;28;96383;-72
2022/10/04 12:51:37;;;;;;;;;5.00;4.00;;;;;22.07;38.52;99228.41;6229903;27;96530;-75
2022/10/04 12:54:43;;;;;;;;;4.00;4.00;;;;;22.66;37.08;99219.81;6238078;28;96401;-70
2022/10/04 12:57:55;;;;;;;;;4.00;4.00;;;;;23.08;36.37;99221.81;6238018;28;96839;-67
2022/10/04 13:01:09;;;;;;;;;4.00;4.00;;;;;23.39;35.21;99221.38;6197812;28;96489;-68
2022/10/04 13:04:28;;;;;;;;;4.00;3.00;;;;;23.30;34.95;99218.47;6213651;28;97037;-69
2022/10/04 13:07:47;;;;;;;;;4.00;3.50;;;;;23.70;35.78;99231.66;6219773;28;96301;-69
2022/10/04 13:11:21;;;;;;;;;4.00;3.25;;;;;24.00;35.55;99230.34;6219370;28;96788;-69
2022/10/04 13:14:45;;;;;;;;;3.00;3.00;;;;;23.88;34.84;99231.94;6237312;28;96378;-68
2022/10/04 13:17:58;;;;;;;;;3.00;2.20;;;;;23.84;33.87;99233.66;6237788;28;96324;-74
2022/10/04 13:21:05;;;;;;;;;4.00;3.00;;;;;23.77;34.02;99230.47;6202220;28;98722;-74
2022/10/04 13:24:22;;;;;;;;;3.00;3.00;;;;;23.46;34.10;99232.84;6217543;28;96487;-70
2022/10/04 13:27:34;;;;;;;;;4.00;4.00;;;;;23.15;33.73;99233.28;6209417;28;97153;-69
2022/10/04 13:30:49;;;;;;;;;3.60;3.60;;;;;22.87;33.54;99251.47;6234627;28;97092;-67
2022/10/04 13:34:00;;;;;;;;;3.00;2.60;;;;;23.04;33.19;99241.94;6235352;28;97037;-69
2022/10/04 13:37:20;;;;;;;;;3.00;3.00;;;;;23.51;33.39;99233.59;6235937;28;98112;-67
2022/10/04 13:40:34;;;;;;;;;3.00;3.00;;;;;23.57;33.02;99242.59;6214201;28;96840;-68
2022/10/04 13:44:09;;;;;;;;;3.67;3.00;;;;;23.51;33.19;99236.34;6230768;28;97947;-71
2022/10/04 13:47:38;;;;;;;;;3.00;2.00;;;;;23.52;33.32;99242.69;6189949;28;98576;-74
2022/10/04 13:50:58;;;;;;;;;3.00;3.00;;;;;23.17;33.99;99241.19;6192261;28;97532;-69
2022/10/04 13:57:50;;;;;;;;;3.00;2.60;;;;;22.60;35.48;99256.72;6210607;28;97074;-71
2022/10/04 14:01:14;;;;;;;;;3.50;3.50;;;;;22.38;35.58;99254.44;6198104;28;98596;-70
2022/10/04 14:04:37;;;;;;;;;2.00;2.00;;;;;22.21;36.45;99256.84;6223077;28;96836;-69
2022/10/04 14:07:57;;;;;;;;;3.00;3.00;;;;;22.40;36.77;99266.00;6223504;28;96985;-68
2022/10/04 14:11:27;;;;;;;;;2.00;2.00;;;;;22.61;35.68;99263.84;6220706;28;97662;-73
2022/10/04 14:15:00;;;;;;;;;3.60;3.00;;;;;22.78;35.39;99261.47;6200796;28;97490;-75
2022/10/04 14:18:46;;;;;;;;;4.00;3.20;;;;;22.96;35.44;99261.84;6198138;28;98376;-67
2022/10/04 14:22:20;;;;;;;;;3.00;3.00;;;;;23.10;36.00;99263.59;6202165;28;97087;-70
2022/10/04 14:25:51;;;;;;;;;3.00;3.00;;;;;23.25;34.39;99246.88;6187731;28;96888;-71
2022/10/04 14:29:16;;;;;;;;;4.00;3.00;;;;;23.04;34.70;99252.94;6225872;28;96751;-70
2022/10/04 14:32:52;;;;;;;;;2.40;2.40;;;;;22.70;34.80;99256.63;6220310;28;96370;-69
2022/10/04 14:36:25;;;;;;;;;3.00;3.00;;;;;22.44;34.45;99264.28;6212614;28;96604;-68
2022/10/04 14:40:06;;;;;;;;;4.00;4.00;;;;;22.20;35.45;99263.44;6210558;28;96974;-70
2022/10/04 14:43:41;;;;;;;;;2.00;2.00;;;;;22.31;34.99;99272.41;6191038;28;96459;-69
2022/10/04 14:46:56;;;;;;;;;3.00;3.00;;;;;22.38;35.32;99265.44;6216725;28;96297;-69
2022/10/04 14:50:18;;;;;;;;;2.00;2.00;;;;;22.63;35.02;99267.13;6219002;28;96438;-68
2022/10/04 14:53:33;;;;;;;;;2.40;2.40;;;;;22.70;34.73;99262.13;6196485;28;97312;-68
2022/10/04 14:56:58;;;;;;;;;3.60;3.60;;;;;22.73;34.00;99261.53;6209742;28;96947;-69
2022/10/04 15:00:11;;;;;;;;;4.00;4.00;;;;;22.87;34.11;99270.72;6199658;28;97039;-70
2022/10/04 15:03:31;;;;;;;;;5.00;3.00;;;;;22.79;34.09;99267.81;6232785;28;96396;-68
2022/10/04 15:06:47;;;;;;;;;3.50;3.00;;;;;22.60;33.04;99273.19;6180481;28;96869;-69
2022/10/04 15:09:57;;;;;;;;;2.75;2.75;;;;;22.45;33.54;99276.94;6218070;28;96697;-70
2022/10/04 15:13:07;;;;;;;;;3.00;3.00;;;;;22.41;33.72;99281.38;6227501;28;96507;-68
2022/10/04 15:16:32;;;;;;;;;4.00;3.00;;;;;22.42;34.80;99285.75;6207173;28;97409;-69
2022/10/04 15:19:53;;;;;;;;;5.00;5.00;;;;;22.29;34.28;99289.16;6234879;28;96559;-68
2022/10/04 15:23:13;;;;;;;;;4.00;4.00;;;;;22.35;35.24;99296.25;6214708;28;98577;-69
2022/10/04 15:26:49;;;;;;;;;5.40;5.00;;;;;22.23;35.52;99292.25;6209977;28;97661;-69
2022/10/04 15:30:08;;;;;;;;;5.00;5.00;;;;;22.11;35.87;99298.13;6211809;28;97624;-68
2022/10/04 15:33:29;;;;;;;;;3.80;3.80;;;;;21.92;36.45;99294.38;6199228;28;97339;-68
2022/10/04 15:36:53;;;;;;;;;7.00;7.00;;;;;21.79;36.98;99301.34;6214751;28;96329;-69
2022/10/04 15:40:30;;;;;;;;;4.80;4.40;;;;;21.58;37.20;99295.16;6209872;28;96774;-67
2022/10/04 15:43:42;;;;;;;;;4.00;4.00;;;;;21.39;37.58;99302.41;6231922;28;96259;-67